Terminal Aerodrome Forecast
Issued by NWS Cleveland, OH

Home | Current Version | Previous Version | Graphics & Text | Print | Product List | Glossary On
Versions: 1 2 3 4 5 6 7 8 9 10 11 12 13 14 15 16 17 18
778
FTUS41 KCLE 300859 AAA
TAFERI
TAF AMD
KERI 300859Z 3009/3106 VRB03KT P6SM BKN050
      TEMPO 3009/3010 -SHRA
     FM301400 12008KT P6SM SCT045 BKN120
     FM301800 06012KT P6SM -TSRA BKN035CB
     FM302300 VRB03KT P6SM SCT250=

USA.gov is the U.S. government's official web portal to all federal, state and local government web resources and services.